sensor_id;sensor_type;location;lat;lon;timestamp;pressure;altitude;pressure_sealevel;temperature;humidity
70250;BME280;57644;48.416;-123.374;2022-10-18T00:02:17;101894.88;;;8.20;70.73
70250;BME280;57644;48.416;-123.374;2022-10-18T00:04:43;101894.00;;;8.02;71.26
70250;BME280;57644;48.416;-123.374;2022-10-18T00:09:46;101893.03;;;7.99;71.41
70250;BME280;57644;48.416;-123.374;2022-10-18T00:12:13;101893.32;;;7.91;71.79
70250;BME280;57644;48.416;-123.374;2022-10-18T00:14:43;101892.98;;;8.00;71.33
70250;BME280;57644;48.416;-123.374;2022-10-18T00:17:17;101891.47;;;7.82;72.33
70250;BME280;57644;48.416;-123.374;2022-10-18T00:19:46;101893.02;;;7.70;72.75
70250;BME280;57644;48.416;-123.374;2022-10-18T00:22:22;101889.65;;;7.74;72.37
70250;BME280;57644;48.416;-123.374;2022-10-18T00:24:50;101891.91;;;7.68;72.61
70250;BME280;57644;48.416;-123.374;2022-10-18T00:27:18;101886.19;;;7.35;74.10
70250;BME280;57644;48.416;-123.374;2022-10-18T00:29:46;101886.21;;;7.44;73.86
70250;BME280;57644;48.416;-123.374;2022-10-18T00:32:17;101889.03;;;7.52;73.39
70250;BME280;57644;48.416;-123.374;2022-10-18T00:34:50;101889.57;;;7.37;74.33
70250;BME280;57644;48.416;-123.374;2022-10-18T00:37:17;101892.05;;;7.36;74.13
70250;BME280;57644;48.416;-123.374;2022-10-18T00:42:26;101900.38;;;7.09;75.65
70250;BME280;57644;48.416;-123.374;2022-10-18T00:47:20;101899.13;;;7.09;75.58
70250;BME280;57644;48.416;-123.374;2022-10-18T00:52:21;101902.98;;;7.03;75.99
70250;BME280;57644;48.416;-123.374;2022-10-18T00:54:51;101904.06;;;6.80;76.98
70250;BME280;57644;48.416;-123.374;2022-10-18T00:57:24;101897.51;;;6.84;77.43
70250;BME280;57644;48.416;-123.374;2022-10-18T01:05:04;101891.63;;;6.92;76.79
70250;BME280;57644;48.416;-123.374;2022-10-18T01:09:58;101891.53;;;6.90;76.85
70250;BME280;57644;48.416;-123.374;2022-10-18T01:12:38;101891.95;;;6.92;76.53
70250;BME280;57644;48.416;-123.374;2022-10-18T01:22:27;101886.74;;;6.82;76.50
70250;BME280;57644;48.416;-123.374;2022-10-18T01:25:04;101890.89;;;6.98;75.79
70250;BME280;57644;48.416;-123.374;2022-10-18T01:27:40;101892.34;;;6.97;75.91
70250;BME280;57644;48.416;-123.374;2022-10-18T01:32:28;101888.84;;;7.06;75.39
70250;BME280;57644;48.416;-123.374;2022-10-18T01:34:58;101891.35;;;7.09;75.48
70250;BME280;57644;48.416;-123.374;2022-10-18T01:37:26;101888.03;;;7.08;75.42
70250;BME280;57644;48.416;-123.374;2022-10-18T01:39:58;101890.38;;;6.89;76.08
70250;BME280;57644;48.416;-123.374;2022-10-18T01:42:26;101894.92;;;6.91;75.80
70250;BME280;57644;48.416;-123.374;2022-10-18T01:44:56;101900.48;;;6.94;75.55
70250;BME280;57644;48.416;-123.374;2022-10-18T01:47:28;101904.42;;;6.78;76.41
70250;BME280;57644;48.416;-123.374;2022-10-18T01:49:59;101906.55;;;6.85;75.88
70250;BME280;57644;48.416;-123.374;2022-10-18T01:52:27;101903.68;;;6.93;75.39
70250;BME280;57644;48.416;-123.374;2022-10-18T01:55:00;101906.08;;;6.79;76.27
70250;BME280;57644;48.416;-123.374;2022-10-18T01:57:33;101908.39;;;6.89;75.73
70250;BME280;57644;48.416;-123.374;2022-10-18T02:00:00;101909.03;;;6.92;75.50
70250;BME280;57644;48.416;-123.374;2022-10-18T02:02:42;101909.41;;;6.89;75.70
70250;BME280;57644;48.416;-123.374;2022-10-18T02:05:05;101911.30;;;6.85;75.71
70250;BME280;57644;48.416;-123.374;2022-10-18T02:07:35;101909.68;;;6.93;75.42
70250;BME280;57644;48.416;-123.374;2022-10-18T02:10:06;101909.90;;;6.86;75.50
70250;BME280;57644;48.416;-123.374;2022-10-18T02:12:32;101910.88;;;6.87;75.61
70250;BME280;57644;48.416;-123.374;2022-10-18T02:15:02;101914.39;;;6.91;75.66
70250;BME280;57644;48.416;-123.374;2022-10-18T02:17:34;101916.76;;;6.95;75.25
70250;BME280;57644;48.416;-123.374;2022-10-18T02:22:45;101922.74;;;6.96;75.13
70250;BME280;57644;48.416;-123.374;2022-10-18T02:25:20;101927.38;;;6.98;75.21
70250;BME280;57644;48.416;-123.374;2022-10-18T02:27:33;101929.57;;;6.87;75.58
70250;BME280;57644;48.416;-123.374;2022-10-18T02:30:07;101934.79;;;6.92;75.30
70250;BME280;57644;48.416;-123.374;2022-10-18T02:35:06;101934.73;;;6.89;75.66
70250;BME280;57644;48.416;-123.374;2022-10-18T02:37:37;101936.65;;;6.75;76.12
70250;BME280;57644;48.416;-123.374;2022-10-18T02:40:09;101939.84;;;6.70;76.17
70250;BME280;57644;48.416;-123.374;2022-10-18T02:42:39;101941.13;;;6.67;76.46
70250;BME280;57644;48.416;-123.374;2022-10-18T02:45:10;101945.76;;;6.71;76.04
70250;BME280;57644;48.416;-123.374;2022-10-18T02:47:35;101948.59;;;6.70;76.52
70250;BME280;57644;48.416;-123.374;2022-10-18T02:50:17;101947.75;;;6.72;76.54
70250;BME280;57644;48.416;-123.374;2022-10-18T02:52:38;101958.10;;;6.74;76.23
70250;BME280;57644;48.416;-123.374;2022-10-18T02:55:10;101964.41;;;6.76;76.25
70250;BME280;57644;48.416;-123.374;2022-10-18T02:57:38;101971.01;;;6.77;76.09
70250;BME280;57644;48.416;-123.374;2022-10-18T03:00:13;101975.18;;;6.79;76.00
70250;BME280;57644;48.416;-123.374;2022-10-18T03:02:40;101981.97;;;6.75;76.05
70250;BME280;57644;48.416;-123.374;2022-10-18T03:07:40;101984.12;;;6.65;76.91
70250;BME280;57644;48.416;-123.374;2022-10-18T03:10:10;101984.19;;;6.69;76.17
70250;BME280;57644;48.416;-123.374;2022-10-18T03:12:40;101988.96;;;6.66;76.33
70250;BME280;57644;48.416;-123.374;2022-10-18T03:15:12;101983.68;;;6.62;76.51
70250;BME280;57644;48.416;-123.374;2022-10-18T03:20:12;101984.36;;;6.72;76.01
70250;BME280;57644;48.416;-123.374;2022-10-18T03:22:52;101980.36;;;6.72;76.01
70250;BME280;57644;48.416;-123.374;2022-10-18T03:40:28;101974.58;;;6.99;74.96
70250;BME280;57644;48.416;-123.374;2022-10-18T03:42:46;101973.00;;;6.95;75.11
70250;BME280;57644;48.416;-123.374;2022-10-18T03:45:13;101974.06;;;6.68;76.36
70250;BME280;57644;48.416;-123.374;2022-10-18T03:47:44;101977.32;;;6.60;76.39
70250;BME280;57644;48.416;-123.374;2022-10-18T03:50:14;101977.13;;;6.52;76.82
70250;BME280;57644;48.416;-123.374;2022-10-18T03:52:45;101980.55;;;6.52;76.70
70250;BME280;57644;48.416;-123.374;2022-10-18T03:55:15;101981.26;;;6.49;76.74
70250;BME280;57644;48.416;-123.374;2022-10-18T03:57:45;101977.14;;;6.45;77.00
70250;BME280;57644;48.416;-123.374;2022-10-18T04:02:52;101977.36;;;6.40;77.10
70250;BME280;57644;48.416;-123.374;2022-10-18T04:05:23;101976.31;;;6.12;78.44
70250;BME280;57644;48.416;-123.374;2022-10-18T04:07:47;101972.09;;;6.13;78.43
70250;BME280;57644;48.416;-123.374;2022-10-18T04:10:17;101973.65;;;6.18;78.02
70250;BME280;57644;48.416;-123.374;2022-10-18T04:12:48;101975.11;;;6.19;78.38
70250;BME280;57644;48.416;-123.374;2022-10-18T04:15:18;101978.43;;;6.15;78.08
70250;BME280;57644;48.416;-123.374;2022-10-18T04:17:48;101978.34;;;6.09;78.35
70250;BME280;57644;48.416;-123.374;2022-10-18T04:20:19;101976.51;;;6.16;77.86
70250;BME280;57644;48.416;-123.374;2022-10-18T04:22:49;101983.00;;;6.11;78.17
70250;BME280;57644;48.416;-123.374;2022-10-18T04:25:19;101985.05;;;6.08;78.46
70250;BME280;57644;48.416;-123.374;2022-10-18T04:27:49;101984.41;;;6.10;78.65
70250;BME280;57644;48.416;-123.374;2022-10-18T04:30:19;101978.25;;;6.09;78.78
70250;BME280;57644;48.416;-123.374;2022-10-18T04:32:54;101983.12;;;5.92;79.12
70250;BME280;57644;48.416;-123.374;2022-10-18T04:35:23;101988.38;;;5.92;79.08
70250;BME280;57644;48.416;-123.374;2022-10-18T04:37:51;101993.36;;;5.87;79.52
70250;BME280;57644;48.416;-123.374;2022-10-18T04:40:21;101999.04;;;6.05;78.75
70250;BME280;57644;48.416;-123.374;2022-10-18T04:42:52;101999.52;;;6.04;78.68
70250;BME280;57644;48.416;-123.374;2022-10-18T04:45:22;102003.23;;;5.66;79.92
70250;BME280;57644;48.416;-123.374;2022-10-18T04:47:52;102010.78;;;5.60;80.00
70250;BME280;57644;48.416;-123.374;2022-10-18T04:50:23;102009.88;;;5.55;80.39
70250;BME280;57644;48.416;-123.374;2022-10-18T04:52:54;102003.51;;;5.51;80.49
70250;BME280;57644;48.416;-123.374;2022-10-18T04:55:24;101995.92;;;5.54;80.46
70250;BME280;57644;48.416;-123.374;2022-10-18T04:57:54;101994.99;;;5.42;81.23
70250;BME280;57644;48.416;-123.374;2022-10-18T05:00:24;101994.88;;;5.31;81.36
70250;BME280;57644;48.416;-123.374;2022-10-18T05:02:56;101993.10;;;5.16;82.01
70250;BME280;57644;48.416;-123.374;2022-10-18T05:05:25;101997.88;;;4.76;84.02
70250;BME280;57644;48.416;-123.374;2022-10-18T05:08:07;101995.20;;;4.87;83.78
70250;BME280;57644;48.416;-123.374;2022-10-18T05:10:36;101996.64;;;4.82;84.15
70250;BME280;57644;48.416;-123.374;2022-10-18T05:12:56;102002.01;;;4.72;84.85
70250;BME280;57644;48.416;-123.374;2022-10-18T05:15:26;102006.37;;;5.00;83.17
70250;BME280;57644;48.416;-123.374;2022-10-18T05:17:57;102007.73;;;4.98;83.48
70250;BME280;57644;48.416;-123.374;2022-10-18T05:20:27;102001.21;;;5.05;83.21
70250;BME280;57644;48.416;-123.374;2022-10-18T05:22:57;102005.05;;;4.98;83.52
70250;BME280;57644;48.416;-123.374;2022-10-18T05:25:27;102008.13;;;4.98;83.22
70250;BME280;57644;48.416;-123.374;2022-10-18T05:27:58;102008.41;;;4.97;83.08
70250;BME280;57644;48.416;-123.374;2022-10-18T05:30:28;102005.89;;;4.98;83.31
70250;BME280;57644;48.416;-123.374;2022-10-18T05:32:58;102005.22;;;4.64;84.71
70250;BME280;57644;48.416;-123.374;2022-10-18T05:35:29;102003.14;;;4.79;83.89
70250;BME280;57644;48.416;-123.374;2022-10-18T05:38:02;102011.53;;;4.70;84.56
70250;BME280;57644;48.416;-123.374;2022-10-18T05:40:30;102022.29;;;4.70;84.53
70250;BME280;57644;48.416;-123.374;2022-10-18T05:43:01;102026.89;;;4.83;83.89
70250;BME280;57644;48.416;-123.374;2022-10-18T05:45:34;102031.61;;;5.05;82.64
70250;BME280;57644;48.416;-123.374;2022-10-18T05:48:01;102033.56;;;5.19;82.15
70250;BME280;57644;48.416;-123.374;2022-10-18T05:50:32;102033.83;;;5.25;81.56
70250;BME280;57644;48.416;-123.374;2022-10-18T05:53:01;102040.18;;;5.29;81.32
70250;BME280;57644;48.416;-123.374;2022-10-18T05:55:32;102043.09;;;5.26;81.32
70250;BME280;57644;48.416;-123.374;2022-10-18T05:58:02;102045.76;;;5.14;81.77
70250;BME280;57644;48.416;-123.374;2022-10-18T06:00:35;102048.95;;;5.14;81.67
70250;BME280;57644;48.416;-123.374;2022-10-18T06:05:33;102045.06;;;5.18;81.38
70250;BME280;57644;48.416;-123.374;2022-10-18T06:08:04;102043.08;;;5.20;81.43
70250;BME280;57644;48.416;-123.374;2022-10-18T06:10:37;102042.55;;;5.20;81.08
70250;BME280;57644;48.416;-123.374;2022-10-18T06:13:04;102046.45;;;5.17;80.65
70250;BME280;57644;48.416;-123.374;2022-10-18T06:15:35;102047.03;;;5.18;80.43
70250;BME280;57644;48.416;-123.374;2022-10-18T06:18:06;102045.16;;;5.08;80.75
70250;BME280;57644;48.416;-123.374;2022-10-18T06:20:35;102042.57;;;5.10;80.91
70250;BME280;57644;48.416;-123.374;2022-10-18T06:23:05;102040.28;;;5.12;80.80
70250;BME280;57644;48.416;-123.374;2022-10-18T06:25:36;102037.59;;;4.99;81.12
70250;BME280;57644;48.416;-123.374;2022-10-18T06:28:06;102041.21;;;4.67;83.30
70250;BME280;57644;48.416;-123.374;2022-10-18T06:30:37;102043.23;;;4.58;84.15
70250;BME280;57644;48.416;-123.374;2022-10-18T06:33:07;102042.61;;;4.56;84.15
70250;BME280;57644;48.416;-123.374;2022-10-18T06:35:38;102043.10;;;4.56;84.05
70250;BME280;57644;48.416;-123.374;2022-10-18T06:38:08;102046.85;;;4.79;82.74
70250;BME280;57644;48.416;-123.374;2022-10-18T06:40:38;102050.12;;;4.94;82.14
70250;BME280;57644;48.416;-123.374;2022-10-18T06:43:09;102051.64;;;5.01;81.79
70250;BME280;57644;48.416;-123.374;2022-10-18T06:45:39;102052.71;;;5.02;81.67
70250;BME280;57644;48.416;-123.374;2022-10-18T06:48:10;102054.63;;;4.98;81.78
70250;BME280;57644;48.416;-123.374;2022-10-18T06:50:40;102052.34;;;5.00;81.78
70250;BME280;57644;48.416;-123.374;2022-10-18T06:53:12;102053.57;;;4.89;82.34
70250;BME280;57644;48.416;-123.374;2022-10-18T06:55:41;102054.37;;;5.02;81.41
70250;BME280;57644;48.416;-123.374;2022-10-18T06:58:11;102045.53;;;5.14;80.92
70250;BME280;57644;48.416;-123.374;2022-10-18T07:00:42;102044.10;;;5.12;80.85
70250;BME280;57644;48.416;-123.374;2022-10-18T07:03:12;102050.68;;;5.01;81.25
70250;BME280;57644;48.416;-123.374;2022-10-18T07:05:42;102056.59;;;5.01;80.95
70250;BME280;57644;48.416;-123.374;2022-10-18T07:08:12;102058.76;;;5.04;81.03
70250;BME280;57644;48.416;-123.374;2022-10-18T07:13:13;102052.63;;;5.03;81.02
70250;BME280;57644;48.416;-123.374;2022-10-18T07:15:43;102050.50;;;5.05;80.55
70250;BME280;57644;48.416;-123.374;2022-10-18T07:18:14;102054.22;;;5.03;80.51
70250;BME280;57644;48.416;-123.374;2022-10-18T07:20:44;102050.54;;;4.94;80.36
70250;BME280;57644;48.416;-123.374;2022-10-18T07:23:14;102051.01;;;4.92;80.21
70250;BME280;57644;48.416;-123.374;2022-10-18T07:25:45;102056.42;;;4.93;79.84
70250;BME280;57644;48.416;-123.374;2022-10-18T07:28:15;102059.57;;;4.89;80.06
70250;BME280;57644;48.416;-123.374;2022-10-18T07:30:46;102062.87;;;4.92;79.64
70250;BME280;57644;48.416;-123.374;2022-10-18T07:33:16;102061.58;;;4.80;80.22
70250;BME280;57644;48.416;-123.374;2022-10-18T07:35:47;102063.82;;;4.72;80.56
70250;BME280;57644;48.416;-123.374;2022-10-18T07:38:17;102067.83;;;4.62;80.83
70250;BME280;57644;48.416;-123.374;2022-10-18T07:40:47;102070.33;;;4.55;80.96
70250;BME280;57644;48.416;-123.374;2022-10-18T07:43:18;102068.46;;;4.58;81.23
70250;BME280;57644;48.416;-123.374;2022-10-18T07:45:52;102063.01;;;4.48;81.57
70250;BME280;57644;48.416;-123.374;2022-10-18T07:48:18;102065.57;;;4.63;80.91
70250;BME280;57644;48.416;-123.374;2022-10-18T07:50:49;102071.11;;;4.56;80.97
70250;BME280;57644;48.416;-123.374;2022-10-18T07:53:20;102076.44;;;4.57;81.00
70250;BME280;57644;48.416;-123.374;2022-10-18T07:55:49;102074.89;;;4.66;80.77
70250;BME280;57644;48.416;-123.374;2022-10-18T07:58:19;102069.86;;;4.66;81.12
70250;BME280;57644;48.416;-123.374;2022-10-18T08:00:50;102073.37;;;4.67;81.34
70250;BME280;57644;48.416;-123.374;2022-10-18T08:03:20;102076.99;;;4.66;81.23
70250;BME280;57644;48.416;-123.374;2022-10-18T08:05:54;102076.44;;;4.44;82.07
70250;BME280;57644;48.416;-123.374;2022-10-18T08:08:21;102076.21;;;4.55;81.58
70250;BME280;57644;48.416;-123.374;2022-10-18T08:10:51;102076.36;;;4.58;82.00
70250;BME280;57644;48.416;-123.374;2022-10-18T08:13:26;102077.23;;;4.63;81.59
70250;BME280;57644;48.416;-123.374;2022-10-18T08:15:58;102077.76;;;4.75;80.97
70250;BME280;57644;48.416;-123.374;2022-10-18T08:18:30;102078.64;;;4.80;80.99
70250;BME280;57644;48.416;-123.374;2022-10-18T08:21:04;102080.69;;;4.80;80.94
70250;BME280;57644;48.416;-123.374;2022-10-18T08:23:27;102078.04;;;4.83;81.10
70250;BME280;57644;48.416;-123.374;2022-10-18T08:26:00;102079.30;;;4.90;80.94
70250;BME280;57644;48.416;-123.374;2022-10-18T08:28:28;102083.88;;;4.90;81.03
70250;BME280;57644;48.416;-123.374;2022-10-18T08:30:54;102085.70;;;4.90;81.12
70250;BME280;57644;48.416;-123.374;2022-10-18T08:33:29;102087.01;;;4.87;80.83
70250;BME280;57644;48.416;-123.374;2022-10-18T08:35:59;102089.22;;;4.86;80.97
70250;BME280;57644;48.416;-123.374;2022-10-18T08:38:30;102089.65;;;4.79;81.12
70250;BME280;57644;48.416;-123.374;2022-10-18T08:40:59;102094.74;;;4.66;81.58
70250;BME280;57644;48.416;-123.374;2022-10-18T08:43:34;102100.13;;;4.65;81.45
70250;BME280;57644;48.416;-123.374;2022-10-18T08:45:58;102104.51;;;4.48;82.38
70250;BME280;57644;48.416;-123.374;2022-10-18T08:48:34;102101.32;;;4.52;81.96
70250;BME280;57644;48.416;-123.374;2022-10-18T08:51:02;102099.30;;;4.51;81.89
70250;BME280;57644;48.416;-123.374;2022-10-18T08:53:34;102095.35;;;4.44;81.85
70250;BME280;57644;48.416;-123.374;2022-10-18T08:56:04;102101.52;;;4.42;81.84
70250;BME280;57644;48.416;-123.374;2022-10-18T08:58:33;102103.48;;;4.46;81.74
70250;BME280;57644;48.416;-123.374;2022-10-18T09:06:09;102101.68;;;4.28;82.62
70250;BME280;57644;48.416;-123.374;2022-10-18T09:11:18;102105.45;;;4.31;82.71
70250;BME280;57644;48.416;-123.374;2022-10-18T09:16:04;102097.95;;;4.32;82.47
70250;BME280;57644;48.416;-123.374;2022-10-18T09:18:45;102094.87;;;4.17;82.91
70250;BME280;57644;48.416;-123.374;2022-10-18T09:23:42;102099.13;;;4.37;82.06
70250;BME280;57644;48.416;-123.374;2022-10-18T09:26:12;102105.85;;;4.47;81.69
70250;BME280;57644;48.416;-123.374;2022-10-18T09:28:40;102110.03;;;4.52;81.23
70250;BME280;57644;48.416;-123.374;2022-10-18T09:31:12;102109.68;;;4.57;80.93
70250;BME280;57644;48.416;-123.374;2022-10-18T09:33:48;102108.93;;;4.45;81.40
70250;BME280;57644;48.416;-123.374;2022-10-18T09:41:15;102116.74;;;4.38;81.16
70250;BME280;57644;48.416;-123.374;2022-10-18T09:43:47;102115.48;;;4.33;81.35
70250;BME280;57644;48.416;-123.374;2022-10-18T09:46:10;102114.86;;;4.28;81.49
70250;BME280;57644;48.416;-123.374;2022-10-18T09:51:17;102122.56;;;4.13;81.95
70250;BME280;57644;48.416;-123.374;2022-10-18T09:53:51;102124.98;;;4.11;82.05
70250;BME280;57644;48.416;-123.374;2022-10-18T09:56:16;102127.72;;;4.12;81.83
70250;BME280;57644;48.416;-123.374;2022-10-18T09:58:54;102127.78;;;4.21;81.26
70250;BME280;57644;48.416;-123.374;2022-10-18T10:01:13;102128.39;;;4.19;81.32
70250;BME280;57644;48.416;-123.374;2022-10-18T10:03:45;102131.75;;;4.18;81.46
70250;BME280;57644;48.416;-123.374;2022-10-18T10:06:21;102130.43;;;4.21;81.48
70250;BME280;57644;48.416;-123.374;2022-10-18T10:08:42;102125.67;;;4.27;81.55
70250;BME280;57644;48.416;-123.374;2022-10-18T10:13:48;102125.31;;;4.39;81.27
70250;BME280;57644;48.416;-123.374;2022-10-18T10:16:16;102132.23;;;4.46;81.37
70250;BME280;57644;48.416;-123.374;2022-10-18T10:21:21;102139.13;;;4.34;81.84
70250;BME280;57644;48.416;-123.374;2022-10-18T10:23:49;102140.91;;;4.29;82.03
70250;BME280;57644;48.416;-123.374;2022-10-18T10:26:20;102141.02;;;4.31;82.08
70250;BME280;57644;48.416;-123.374;2022-10-18T10:28:47;102145.98;;;4.40;81.96
70250;BME280;57644;48.416;-123.374;2022-10-18T10:31:24;102148.12;;;4.45;82.21
70250;BME280;57644;48.416;-123.374;2022-10-18T10:33:51;102151.38;;;4.43;83.02
70250;BME280;57644;48.416;-123.374;2022-10-18T10:36:20;102154.75;;;4.53;82.43
70250;BME280;57644;48.416;-123.374;2022-10-18T10:41:24;102151.64;;;4.61;81.81
70250;BME280;57644;48.416;-123.374;2022-10-18T10:43:53;102154.81;;;4.60;82.09
70250;BME280;57644;48.416;-123.374;2022-10-18T10:46:24;102153.81;;;4.48;81.86
70250;BME280;57644;48.416;-123.374;2022-10-18T10:48:53;102153.66;;;4.36;82.08
70250;BME280;57644;48.416;-123.374;2022-10-18T10:51:33;102153.86;;;4.32;82.01
70250;BME280;57644;48.416;-123.374;2022-10-18T10:53:56;102153.76;;;4.35;82.29
70250;BME280;57644;48.416;-123.374;2022-10-18T10:56:24;102154.53;;;4.32;82.00
70250;BME280;57644;48.416;-123.374;2022-10-18T10:58:54;102152.01;;;4.30;82.25
70250;BME280;57644;48.416;-123.374;2022-10-18T11:01:30;102150.52;;;4.17;82.15
70250;BME280;57644;48.416;-123.374;2022-10-18T11:03:56;102151.34;;;4.17;82.06
70250;BME280;57644;48.416;-123.374;2022-10-18T11:08:54;102153.11;;;4.13;81.85
70250;BME280;57644;48.416;-123.374;2022-10-18T11:11:26;102152.22;;;4.13;81.70
70250;BME280;57644;48.416;-123.374;2022-10-18T11:13:58;102151.16;;;4.10;81.55
70250;BME280;57644;48.416;-123.374;2022-10-18T11:19:04;102156.55;;;4.11;81.47
70250;BME280;57644;48.416;-123.374;2022-10-18T11:23:58;102162.55;;;4.20;80.86
70250;BME280;57644;48.416;-123.374;2022-10-18T11:29:10;102161.58;;;4.31;80.40
70250;BME280;57644;48.416;-123.374;2022-10-18T11:31:31;102162.81;;;4.23;80.74
70250;BME280;57644;48.416;-123.374;2022-10-18T11:34:11;102162.90;;;4.20;80.80
70250;BME280;57644;48.416;-123.374;2022-10-18T11:36:36;102167.78;;;4.10;81.18
70250;BME280;57644;48.416;-123.374;2022-10-18T11:39:06;102168.95;;;4.16;80.59
70250;BME280;57644;48.416;-123.374;2022-10-18T11:41:37;102171.78;;;4.20;80.38
70250;BME280;57644;48.416;-123.374;2022-10-18T11:44:02;102172.84;;;4.13;80.72
70250;BME280;57644;48.416;-123.374;2022-10-18T11:46:40;102173.47;;;4.13;80.72
70250;BME280;57644;48.416;-123.374;2022-10-18T11:49:14;102169.37;;;3.99;81.48
70250;BME280;57644;48.416;-123.374;2022-10-18T11:51:38;102169.82;;;4.04;81.32
70250;BME280;57644;48.416;-123.374;2022-10-18T11:54:09;102169.63;;;3.98;81.25
70250;BME280;57644;48.416;-123.374;2022-10-18T11:56:43;102167.20;;;3.81;81.72
70250;BME280;57644;48.416;-123.374;2022-10-18T12:01:36;102167.00;;;3.69;81.84
70250;BME280;57644;48.416;-123.374;2022-10-18T12:04:10;102168.39;;;3.80;81.08
70250;BME280;57644;48.416;-123.374;2022-10-18T12:06:36;102167.50;;;3.76;80.96
70250;BME280;57644;48.416;-123.374;2022-10-18T12:11:40;102173.99;;;3.72;81.29
70250;BME280;57644;48.416;-123.374;2022-10-18T12:14:12;102177.41;;;3.80;80.93
70250;BME280;57644;48.416;-123.374;2022-10-18T12:16:38;102179.46;;;3.88;80.57
70250;BME280;57644;48.416;-123.374;2022-10-18T12:19:25;102179.64;;;3.88;80.57
70250;BME280;57644;48.416;-123.374;2022-10-18T12:21:38;102181.98;;;3.80;81.03
70250;BME280;57644;48.416;-123.374;2022-10-18T12:24:11;102183.63;;;3.76;81.29
70250;BME280;57644;48.416;-123.374;2022-10-18T12:26:43;102185.00;;;3.60;82.19
70250;BME280;57644;48.416;-123.374;2022-10-18T12:29:19;102187.30;;;3.43;83.24
70250;BME280;57644;48.416;-123.374;2022-10-18T12:31:41;102190.02;;;3.34;83.68
70250;BME280;57644;48.416;-123.374;2022-10-18T12:37:01;102197.58;;;3.37;83.56
70250;BME280;57644;48.416;-123.374;2022-10-18T12:41:44;102197.56;;;3.24;83.89
70250;BME280;57644;48.416;-123.374;2022-10-18T12:44:20;102200.13;;;3.25;84.21
70250;BME280;57644;48.416;-123.374;2022-10-18T12:46:47;102199.82;;;3.28;84.65
70250;BME280;57644;48.416;-123.374;2022-10-18T12:54:22;102214.94;;;3.59;83.95
70250;BME280;57644;48.416;-123.374;2022-10-18T12:56:47;102211.80;;;3.66;83.34
70250;BME280;57644;48.416;-123.374;2022-10-18T13:09:23;102208.80;;;3.66;82.72
70250;BME280;57644;48.416;-123.374;2022-10-18T13:11:46;102211.05;;;3.74;82.23
70250;BME280;57644;48.416;-123.374;2022-10-18T13:16:51;102221.97;;;3.74;81.92
70250;BME280;57644;48.416;-123.374;2022-10-18T13:19:22;102224.84;;;3.80;81.58
70250;BME280;57644;48.416;-123.374;2022-10-18T13:31:55;102222.66;;;3.51;81.97
70250;BME280;57644;48.416;-123.374;2022-10-18T13:34:25;102222.20;;;3.30;83.10
70250;BME280;57644;48.416;-123.374;2022-10-18T13:39:28;102224.80;;;3.44;83.04
70250;BME280;57644;48.416;-123.374;2022-10-18T13:44:29;102230.19;;;3.52;82.41
70250;BME280;57644;48.416;-123.374;2022-10-18T13:49:32;102237.50;;;3.39;82.40
70250;BME280;57644;48.416;-123.374;2022-10-18T13:52:04;102241.45;;;3.33;83.45
70250;BME280;57644;48.416;-123.374;2022-10-18T13:54:44;102247.90;;;3.44;82.54
70250;BME280;57644;48.416;-123.374;2022-10-18T13:59:34;102245.09;;;3.53;82.41
70250;BME280;57644;48.416;-123.374;2022-10-18T14:02:08;102242.86;;;3.40;82.82
70250;BME280;57644;48.416;-123.374;2022-10-18T14:09:34;102244.06;;;3.37;82.33
70250;BME280;57644;48.416;-123.374;2022-10-18T14:14:31;102249.09;;;3.49;81.76
70250;BME280;57644;48.416;-123.374;2022-10-18T14:17:06;102252.87;;;3.43;81.76
70250;BME280;57644;48.416;-123.374;2022-10-18T14:19:35;102255.21;;;3.50;81.58
70250;BME280;57644;48.416;-123.374;2022-10-18T14:22:10;102255.64;;;3.52;81.51
70250;BME280;57644;48.416;-123.374;2022-10-18T14:24:31;102255.35;;;3.45;81.71
70250;BME280;57644;48.416;-123.374;2022-10-18T14:29:33;102252.62;;;3.25;82.46
70250;BME280;57644;48.416;-123.374;2022-10-18T14:34:35;102264.57;;;3.43;81.59
70250;BME280;57644;48.416;-123.374;2022-10-18T14:37:02;102268.07;;;3.46;81.58
70250;BME280;57644;48.416;-123.374;2022-10-18T14:39:41;102271.41;;;3.37;82.61
70250;BME280;57644;48.416;-123.374;2022-10-18T14:42:02;102273.51;;;3.33;82.79
70250;BME280;57644;48.416;-123.374;2022-10-18T14:44:37;102275.57;;;3.37;83.09
70250;BME280;57644;48.416;-123.374;2022-10-18T14:47:19;102278.59;;;3.43;82.73
70250;BME280;57644;48.416;-123.374;2022-10-18T14:49:33;102281.90;;;3.46;82.62
70250;BME280;57644;48.416;-123.374;2022-10-18T14:54:37;102291.40;;;3.47;82.57
70250;BME280;57644;48.416;-123.374;2022-10-18T14:57:14;102295.90;;;3.52;82.24
70250;BME280;57644;48.416;-123.374;2022-10-18T14:59:39;102301.57;;;3.61;81.91
70250;BME280;57644;48.416;-123.374;2022-10-18T15:02:11;102305.48;;;3.69;81.62
70250;BME280;57644;48.416;-123.374;2022-10-18T15:04:36;102310.13;;;3.80;81.62
70250;BME280;57644;48.416;-123.374;2022-10-18T15:07:12;102313.37;;;3.91;81.48
70250;BME280;57644;48.416;-123.374;2022-10-18T15:09:39;102314.69;;;3.83;81.60
70250;BME280;57644;48.416;-123.374;2022-10-18T15:12:12;102318.25;;;4.15;81.34
70250;BME280;57644;48.416;-123.374;2022-10-18T15:14:44;102321.03;;;4.40;80.98
70250;BME280;57644;48.416;-123.374;2022-10-18T15:17:12;102317.70;;;4.68;80.14
70250;BME280;57644;48.416;-123.374;2022-10-18T15:19:55;102315.98;;;5.03;79.25
70250;BME280;57644;48.416;-123.374;2022-10-18T15:22:14;102318.05;;;5.36;78.50
70250;BME280;57644;48.416;-123.374;2022-10-18T15:27:21;102325.16;;;5.95;76.69
70250;BME280;57644;48.416;-123.374;2022-10-18T15:32:18;102325.77;;;6.90;74.55